Latest Weather Observations for Walgett

IDN60801

Issued at 8:05 pm EST Wednesday 23 April 2014 (issued every 30 minutes, with the page automatically refreshed every 10 minutes)

About weather observations | Map of weather stations | Latest weather observations for NSW | Other Formats
Station Details ID: 052088 Name: WALGETT AIRPORT AWS Lat: -30.04 Lon: 148.12 Height: 133.0 m
Data from the previous 72 hours. | See also: Recent months at Walgett
Date/Time
EST
Temp
°C
App
Temp
°C
Dew
Point
Rel
Hum
%
Delta-T
°C
Wind Press
QNH
hPa
Press
MSL
hPa
Rain
since 9 am
mm
Dir
 
Spd
km/h
Gust
km/h
Spd
kts
Gust
kts
23/08:00pm 19.2 15.6 0.3 28 8.4 SSE 9 9 5 5 1015.2 - 0.0
23/07:30pm 20.1 16.8 0.0 26 8.9 SSE 7 9 4 5 1014.9 - 0.0
23/07:00pm 21.1 17.8 -0.2 24 9.5 S 7 9 4 5 1014.8 - 0.0
23/06:30pm 22.7 19.0 -0.1 22 10.3 S 9 11 5 6 1014.6 - 0.0
23/06:00pm 25.3 21.7 0.7 20 11.6 SSW 9 13 5 7 1014.4 1014.1 0.0
23/05:30pm 27.9 23.8 2.2 19 12.6 SW 13 17 7 9 1014.1 - 0.0
23/05:00pm 29.7 25.4 1.2 16 13.9 W 13 17 7 9 1013.8 - 0.0
23/04:30pm 30.3 25.2 0.8 15 14.4 WSW 17 24 9 13 1013.6 - 0.0
23/04:00pm 30.7 25.4 2.9 17 14.1 WSW 20 32 11 17 1013.7 - 0.0
23/03:30pm 31.2 26.9 3.3 17 14.3 W 15 20 8 11 1013.7 - 0.0
23/03:00pm 31.2 26.6 5.6 20 13.6 W 19 28 10 15 1013.7 1013.4 0.0
23/02:30pm 31.0 25.7 3.1 17 14.2 W 20 32 11 17 1014.0 - 0.0
23/02:00pm 31.1 25.5 5.5 20 13.6 W 24 33 13 18 1014.1 - 0.0
23/01:30pm 31.1 27.7 7.5 23 12.9 W 15 26 8 14 1014.4 - 0.0
23/01:00pm 30.3 27.8 8.1 25 12.3 WNW 11 24 6 13 1014.9 - 0.0
23/12:30pm 30.0 26.8 8.4 26 12.0 W 15 22 8 12 1015.5 - 0.0
23/12:00pm 29.3 26.1 8.4 27 11.5 NW 15 22 8 12 1016.2 1015.9 0.0
23/11:30am 29.0 27.1 9.2 29 11.1 W 9 17 5 9 1016.7 - 0.0
23/11:00am 27.7 23.9 9.0 31 10.3 NW 19 26 10 14 1017.3 - 0.0
23/10:30am 27.1 23.4 9.5 33 9.8 NW 19 24 10 13 1017.5 - 0.0
23/10:00am 25.8 22.7 8.8 34 9.3 WNW 15 20 8 11 1018.0 - 0.0
23/09:30am 24.6 22.0 9.3 38 8.4 NNW 13 17 7 9 1018.0 - 0.0
23/08:30am 20.5 17.8 8.8 47 6.2 NNE 13 17 7 9 1017.8 - 0.0
23/08:00am 17.2 13.6 6.7 50 5.2 NE 15 20 8 11 1017.5 - 0.0
23/07:30am 12.7 11.6 5.1 60 3.5 CALM 0 0 0 0 1017.5 - 0.0
23/07:00am 8.8 7.2 2.4 64 2.7 CALM 0 0 0 0 1017.5 - 0.0
23/06:30am 8.1 6.2 0.3 58 3.1 CALM 0 0 0 0 1017.3 - 0.0
23/06:00am 8.6 6.9 2.0 63 2.8 NE 0 0 0 0 1017.2 1016.9 0.0
23/05:30am 8.8 7.2 2.6 65 2.6 CALM 0 0 0 0 1017.2 - 0.0
23/05:00am 9.0 7.4 2.6 64 2.7 CALM 0 0 0 0 1017.1 - 0.0
23/04:30am 9.1 7.5 2.4 63 2.8 CALM 0 0 0 0 1016.9 - 0.0
23/04:00am 9.4 7.9 3.2 65 2.7 CALM 0 0 0 0 1016.9 - 0.0
23/03:30am 9.5 7.9 2.4 61 3.0 CALM 0 0 0 0 1017.0 - 0.0
23/03:00am 10.4 8.6 3.4 62 3.1 SW 2 7 1 4 1017.1 1016.8 0.0
23/02:30am 10.6 8.3 2.7 58 3.4 SSE 4 7 2 4 1017.0 - 0.0
23/02:00am 11.4 8.5 2.7 55 3.8 SSE 7 9 4 5 1017.1 - 0.0
23/01:30am 11.9 8.9 3.9 58 3.6 SSW 9 11 5 6 1017.7 - 0.0
23/01:00am 13.0 10.3 3.7 53 4.2 S 7 9 4 5 1017.5 - 0.0
23/12:30am 13.7 11.0 2.9 48 4.8 SSE 6 7 3 4 1017.4 - 0.0
23/12:00am 15.0 12.3 3.5 46 5.3 S 7 9 4 5 1017.4 1017.1 0.0
 
Date/Time
EST
Temp
°C
App
Temp
°C
Dew
Point
Rel
Hum
%
Delta-T
°C
Wind Press
QNH
hPa
Press
MSL
hPa
Rain
since 9 am
mm
Dir
 
Spd
km/h
Gust
km/h
Spd
kts
Gust
kts
22/11:30pm 15.0 12.2 2.9 44 5.5 SSE 7 9 4 5 1017.5 - 0.0
22/11:00pm 16.1 13.3 3.2 42 5.9 SSE 7 9 4 5 1017.7 - 0.0
22/10:30pm 16.7 13.8 2.7 39 6.4 SSE 7 9 4 5 1017.9 - 0.0
22/10:00pm 17.4 14.5 2.6 37 6.8 SSE 7 11 4 6 1017.4 - 0.0
22/09:30pm 18.4 15.1 2.7 35 7.3 SSE 9 13 5 7 1017.3 - 0.0
22/09:00pm 19.7 15.7 3.0 33 7.9 SSE 13 17 7 9 1017.2 1016.9 0.0
22/08:30pm 20.7 16.4 3.4 32 8.3 S 15 20 8 11 1017.0 - 0.0
22/08:00pm 21.5 17.7 3.7 31 8.6 S 13 17 7 9 1016.8 - 0.0
22/07:30pm 22.6 18.9 4.6 31 8.9 SSW 13 17 7 9 1016.5 - 0.0
22/07:00pm 21.9 18.6 2.6 28 9.2 SSW 9 11 5 6 1016.1 - 0.0
22/06:30pm 24.7 22.2 4.5 27 10.1 WSW 7 9 4 5 1016.0 - 0.0
22/06:00pm 26.0 23.2 5.0 26 10.7 WSW 9 11 5 6 1015.6 1015.3 0.0
22/05:30pm 27.0 23.8 5.3 25 11.2 W 11 13 6 7 1015.3 - 0.0
22/05:00pm 29.2 26.2 6.0 23 12.3 N 11 19 6 10 1015.2 - 0.0
22/04:30pm 30.1 26.6 5.4 21 13.0 NW 13 19 7 10 1015.2 - 0.0
22/04:00pm 30.9 27.7 5.3 20 13.5 NNW 11 17 6 9 1015.3 - 0.0
22/03:30pm 30.8 28.2 6.0 21 13.3 NW 9 19 5 10 1015.5 - 0.0
22/03:00pm 30.6 26.7 7.1 23 12.8 NNW 17 26 9 14 1015.7 1015.4 0.0
22/02:30pm 29.4 27.1 7.3 25 12.0 NNW 9 20 5 11 1015.9 - 0.0
22/02:00pm 29.6 26.3 8.1 26 11.8 W 15 24 8 13 1016.2 - 0.0
22/01:30pm 29.3 26.6 8.9 28 11.4 NNW 13 22 7 12 1016.5 - 0.0
22/01:00pm 28.9 26.5 8.6 28 11.2 NNW 11 19 6 10 1016.9 - 0.0
22/12:30pm 28.1 24.9 8.4 29 10.8 NNW 15 20 8 11 1017.5 - 0.0
22/12:00pm 27.2 24.9 7.6 29 10.5 N 9 17 5 9 1018.3 1017.9 0.0
22/11:30am 26.3 24.0 7.4 30 10.1 N 9 15 5 8 1018.9 - 0.0
22/11:00am 25.3 22.7 6.0 29 10.0 ENE 9 17 5 9 1019.4 - 0.0
22/10:30am 24.2 21.2 6.0 31 9.4 ENE 11 15 6 8 1019.7 - 0.0
22/10:00am 23.3 20.4 6.6 34 8.6 ENE 11 19 6 10 1019.9 - 0.0
22/09:30am 21.2 17.7 5.5 36 7.8 NE 13 17 7 9 1020.2 - 0.0
22/09:00am 19.5 16.4 5.6 40 6.9 ENE 11 13 6 7 1020.1 1019.8 0.0
22/08:30am 17.8 15.2 6.0 46 5.8 ENE 9 13 5 7 1020.0 - 0.0
22/08:00am 14.7 11.9 5.0 52 4.6 E 9 13 5 7 1020.0 - 0.0
22/07:30am 12.1 9.2 4.8 61 3.4 E 9 11 5 6 1019.8 - 0.0
22/07:00am 8.3 6.1 1.2 61 2.9 ENE 2 6 1 3 1019.7 - 0.0
22/06:30am 7.3 5.4 0.5 62 2.7 CALM 0 0 0 0 1019.4 - 0.0
22/06:00am 7.7 6.0 1.8 66 2.4 CALM 0 0 0 0 1019.3 1019.0 0.0
22/05:30am 6.8 3.7 0.3 63 2.6 E 6 7 3 4 1019.3 - 0.0
22/05:00am 7.9 4.4 1.3 63 2.7 E 9 11 5 6 1019.0 - 0.0
22/04:30am 7.7 6.0 1.8 66 2.4 CALM 0 0 0 0 1019.0 - 0.0
22/04:00am 8.3 6.6 1.7 63 2.7 CALM 0 0 0 0 1019.0 - 0.0
22/03:30am 8.7 6.5 1.1 59 3.1 ESE 2 6 1 3 1018.7 - 0.0
22/03:00am 10.3 7.4 2.7 59 3.3 NE 7 9 4 5 1018.6 1018.2 0.0
22/02:30am 10.9 7.6 2.5 56 3.6 E 9 9 5 5 1018.8 - 0.0
22/02:00am 10.4 7.1 2.3 57 3.5 E 9 15 5 8 1018.9 - 0.0
22/01:30am 10.1 6.2 1.2 54 3.7 SSE 11 13 6 7 1018.9 - 0.0
22/01:00am 8.8 5.0 -0.5 52 3.7 SE 9 11 5 6 1019.3 - 0.0
22/12:30am 9.1 5.9 -0.2 52 3.7 SE 6 7 3 4 1019.6 - 0.0
22/12:00am 9.7 6.4 0.1 51 3.9 SSE 7 9 4 5 1019.7 1019.4 0.0
 
Date/Time
EST
Temp
°C
App
Temp
°C
Dew
Point
Rel
Hum
%
Delta-T
°C
Wind Press
QNH
hPa
Press
MSL
hPa
Rain
since 9 am
mm
Dir
 
Spd
km/h
Gust
km/h
Spd
kts
Gust
kts
21/11:30pm 9.9 6.7 -0.3 49 4.1 ESE 6 7 3 4 1019.8 - 0.0
21/11:00pm 10.2 6.7 -1.2 45 4.5 SE 7 9 4 5 1020.0 - 0.0
21/10:30pm 10.7 6.9 -1.0 44 4.7 ESE 9 9 5 5 1020.0 - 0.0
21/10:00pm 10.1 6.6 -1.6 44 4.6 E 7 11 4 6 1020.1 - 0.0
21/09:30pm 11.7 8.4 -1.4 40 5.2 E 6 7 3 4 1020.1 - 0.0
21/09:00pm 14.0 10.7 -0.1 38 5.9 SE 7 9 4 5 1020.0 1019.7 0.0
21/08:30pm 15.6 12.1 1.0 37 6.4 SSE 9 11 5 6 1019.7 - 0.0
21/08:00pm 15.2 11.1 -0.1 35 6.5 S 11 11 6 6 1019.7 - 0.0
21/07:30pm 16.2 12.8 -0.9 31 7.2 SSE 7 9 4 5 1019.6 - 0.0
21/07:00pm 17.6 14.0 0.7 32 7.5 SSW 9 11 5 6 1019.4 - 0.0
21/06:30pm 18.5 14.8 -0.3 28 8.2 SSE 9 11 5 6 1019.1 - 0.0
21/06:00pm 20.3 17.0 0.2 26 9.0 SSW 7 9 4 5 1018.9 1018.5 0.0
21/05:30pm 22.7 19.7 1.7 25 9.9 SSW 7 9 4 5 1018.7 - 0.0
21/05:00pm 24.1 20.8 2.3 24 10.5 SW 9 13 5 7 1018.5 - 0.0
21/04:30pm 25.4 22.5 2.8 23 11.1 W 7 15 4 8 1018.3 - 0.0
21/04:00pm 25.1 21.8 2.5 23 11.0 SSW 9 15 5 8 1018.2 - 0.0
21/03:30pm 25.3 22.3 2.1 22 11.2 ESE 7 15 4 8 1018.3 - 0.0
21/03:00pm 25.1 22.1 1.9 22 11.1 S 7 13 4 7 1018.3 1017.9 0.0
21/02:30pm 24.9 21.6 2.4 23 10.9 NE 9 15 5 8 1018.5 - 0.0
21/02:00pm 24.7 21.4 2.2 23 10.8 NE 9 17 5 9 1018.8 - 0.0
21/01:30pm 24.6 21.0 2.7 24 10.6 SSW 11 19 6 10 1019.0 - 0.0
21/01:00pm 24.2 21.0 2.9 25 10.3 SW 9 15 5 8 1019.5 - 0.0
21/12:30pm 23.4 20.5 2.8 26 9.9 SW 7 15 4 8 1020.0 - 0.0
21/12:00pm 23.1 20.4 3.6 28 9.5 SE 7 11 4 6 1020.6 1020.3 0.0
21/11:30am 22.9 20.2 3.9 29 9.3 S 7 15 4 8 1021.2 - 0.0
21/11:00am 21.9 19.2 3.6 30 8.9 ESE 7 17 4 9 1021.8 - 0.0
21/10:30am 21.2 17.7 3.4 31 8.5 ESE 11 19 6 10 1022.1 - 0.0
21/10:00am 20.4 17.1 4.4 35 7.8 ESE 11 17 6 9 1022.2 - 0.0
21/09:30am 19.3 16.0 4.6 38 7.1 E 11 17 6 9 1022.4 - 0.0
21/09:00am 17.4 14.1 4.7 43 6.1 E 11 15 6 8 1022.6 1022.3 0.0
21/08:30am 15.3 12.4 4.4 48 5.1 E 9 13 5 7 1022.4 - 0.0
21/08:00am 12.6 10.0 4.1 56 3.9 E 7 9 4 5 1022.2 - 0.0
21/07:30am 8.9 7.3 2.7 65 2.6 CALM 0 0 0 0 1021.7 - 0.0
21/07:00am 5.6 3.8 1.3 74 1.7 CALM 0 0 0 0 1021.4 - 0.0
21/06:30am 3.9 1.0 -0.9 71 1.8 S 4 7 2 4 1021.1 - 0.0
21/06:00am 5.1 3.2 0.7 73 1.7 CALM 0 0 0 0 1020.7 1020.4 0.0
21/05:30am 6.0 4.3 1.9 75 1.7 CALM 0 0 0 0 1020.5 - 0.0
21/05:00am 5.4 3.4 0.2 69 2.0 CALM 0 0 0 0 1020.1 - 0.0
21/04:30am 6.7 4.9 1.4 69 2.1 CALM 0 0 0 0 1019.7 - 0.0
21/04:00am 7.5 5.4 1.8 67 2.3 SSE 2 6 1 3 1019.4 - 0.0
21/03:30am 6.5 3.4 0.0 63 2.5 SSE 6 6 3 3 1019.1 - 0.0
21/03:00am 7.6 4.3 0.3 60 2.9 SSE 7 9 4 5 1019.1 1018.7 0.0
21/02:30am 6.7 3.3 -0.5 60 2.8 SSE 7 7 4 4 1019.3 - 0.0
21/02:00am 7.9 4.6 0.2 58 3.1 S 7 7 4 4 1019.4 - 0.0
21/01:30am 7.3 4.1 -0.6 57 3.1 S 6 7 3 4 1019.6 - 0.0
21/01:00am 8.2 4.8 -0.8 53 3.5 SSE 7 9 4 5 1019.6 - 0.0
21/12:30am 9.6 6.2 -0.6 49 4.1 SSE 7 7 4 4 1019.6 - 0.0
21/12:00am 11.1 7.4 -0.1 46 4.6 S 9 9 5 5 1019.7 1019.4 0.0
 
Date/Time
EST
Temp
°C
App
Temp
°C
Dew
Point
Rel
Hum
%
Delta-T
°C
Wind Press
QNH
hPa
Press
MSL
hPa
Rain
since 9 am
mm
Dir
 
Spd
km/h
Gust
km/h
Spd
kts
Gust
kts
20/11:30pm 11.7 8.0 0.2 45 4.8 SSE 9 11 5 6 1019.6 - 0.0
20/11:00pm 12.0 8.3 0.1 44 4.9 SSE 9 11 5 6 1019.7 - 0.0
20/10:30pm 11.9 8.1 -0.6 42 5.1 S 9 11 5 6 1019.7 - 0.0
20/10:00pm 12.8 9.1 -0.1 41 5.4 SSE 9 11 5 6 1019.5 - 0.0
20/09:30pm 13.3 9.6 0.0 40 5.6 SSE 9 11 5 6 1019.5 - 0.0
20/09:00pm 13.1 9.4 -0.2 40 5.5 S 9 13 5 7 1019.3 1019.0 0.0
20/08:30pm 13.2 9.3 -1.5 36 5.9 S 9 11 5 6 1019.2 - 0.0

Other Formats:

Comma delimited format used in spreadsheet applications
http://www.bom.gov.au/fwo/IDN60801/IDN60801.95715.axf

JavaScript Object Notation format (JSON) in row-major order
http://www.bom.gov.au/fwo/IDN60801/IDN60801.95715.json